RYR34GF EGCC-LGKR
Flight info
| Callsign | RYR34GF |
|---|---|
| Flight time | 3h 5m |
| Altitude | 37000 |
| Route | SONEX L975 DESIG L603 DOLAS DCT NAVPI DCT DODEN DCT NEGIX DCT DINKU M867 XERUM DCT BAVAX DCT RADIZ DCT MODRO DCT DARZA DCT DEPET DCT UNIPA DCT VAKSU DCT RODON DCT LIMJA N732 PITAS |
| Aircraft | B738/M-SDE3FGILRWY/SB1 |
Departure
| Time | 2026-05-07 07:29 |
|---|---|
| Airport | Manchester Airport (EGCC) |
Arrival
| Time | 2026-05-07 10:34 |
|---|---|
| Airport | Corfu Ioannis Kapodistrias International Airport (LGKR) |
| Time | Latitude | Longitude | Altitude | Speed | Heading |
|---|---|---|---|---|---|
| 2026-05-07 07:06 | 53.36062 | -2.26840 | 254 ft | 0 kts | 313° |
| 2026-05-07 07:20 | 53.36057 | -2.26833 | 254 ft | 4 kts | 313° |
| 2026-05-07 07:20 | 53.36040 | -2.26799 | 254 ft | 4 kts | 299° |
| 2026-05-07 07:20 | 53.36032 | -2.26759 | 254 ft | 4 kts | 265° |
| 2026-05-07 07:21 | 53.36039 | -2.26724 | 254 ft | 1 kts | 231° |
| 2026-05-07 07:21 | 53.36041 | -2.26718 | 254 ft | 0 kts | 231° |
| 2026-05-07 07:24 | 53.36039 | -2.26723 | 254 ft | 4 kts | 230° |
| 2026-05-07 07:24 | 53.36006 | -2.26750 | 254 ft | 7 kts | 186° |
| 2026-05-07 07:25 | 53.35880 | -2.26695 | 261 ft | 12 kts | 170° |
| 2026-05-07 07:25 | 53.35775 | -2.26666 | 268 ft | 20 kts | 170° |
| 2026-05-07 07:25 | 53.35619 | -2.26625 | 266 ft | 20 kts | 179° |
| 2026-05-07 07:26 | 53.35502 | -2.26764 | 257 ft | 20 kts | 231° |
| 2026-05-07 07:26 | 53.35419 | -2.26938 | 249 ft | 19 kts | 231° |
| 2026-05-07 07:26 | 53.35333 | -2.27116 | 243 ft | 19 kts | 231° |
| 2026-05-07 07:26 | 53.35244 | -2.27299 | 238 ft | 20 kts | 230° |
| 2026-05-07 07:27 | 53.35155 | -2.27481 | 235 ft | 20 kts | 231° |
| 2026-05-07 07:27 | 53.35069 | -2.27659 | 233 ft | 16 kts | 231° |
| 2026-05-07 07:27 | 53.34968 | -2.27688 | 225 ft | 17 kts | 171° |
| 2026-05-07 07:27 | 53.34864 | -2.27661 | 221 ft | 12 kts | 178° |
| 2026-05-07 07:28 | 53.34826 | -2.27703 | 222 ft | 1 kts | 232° |
| 2026-05-07 07:28 | 53.34822 | -2.27711 | 222 ft | 1 kts | 232° |
| 2026-05-07 07:28 | 53.34790 | -2.27776 | 222 ft | 28 kts | 230° |
| 2026-05-07 07:28 | 53.34516 | -2.28339 | 226 ft | 97 kts | 231° |
| 2026-05-07 07:29 | 53.33950 | -2.29498 | 237 ft | 154 kts | 229° |
| 2026-05-07 07:29 | 53.33257 | -2.30923 | 742 ft | 163 kts | 230° |
| 2026-05-07 07:29 | 53.32518 | -2.32500 | 1424 ft | 175 kts | 229° |
| 2026-05-07 07:29 | 53.31918 | -2.34258 | 2292 ft | 179 kts | 246° |
| 2026-05-07 07:30 | 53.31716 | -2.36448 | 2656 ft | 209 kts | 271° |
| 2026-05-07 07:30 | 53.32191 | -2.38889 | 2926 ft | 235 kts | 301° |
| 2026-05-07 07:30 | 53.33447 | -2.40698 | 3518 ft | 246 kts | 334° |
| 2026-05-07 07:30 | 53.35105 | -2.41472 | 4256 ft | 248 kts | 345° |
| 2026-05-07 07:31 | 53.36783 | -2.42184 | 4841 ft | 249 kts | 343° |
| 2026-05-07 07:31 | 53.38457 | -2.42993 | 5033 ft | 252 kts | 341° |
| 2026-05-07 07:31 | 53.40147 | -2.43863 | 5410 ft | 255 kts | 341° |
| 2026-05-07 07:31 | 53.41830 | -2.44746 | 6188 ft | 256 kts | 340° |
| 2026-05-07 07:32 | 53.43608 | -2.45538 | 6705 ft | 273 kts | 354° |
| 2026-05-07 07:32 | 53.45473 | -2.44875 | 7378 ft | 282 kts | 29° |
| 2026-05-07 07:32 | 53.46863 | -2.42566 | 8140 ft | 287 kts | 63° |
| 2026-05-07 07:32 | 53.47428 | -2.39355 | 8927 ft | 290 kts | 81° |
| 2026-05-07 07:33 | 53.47768 | -2.36003 | 9747 ft | 293 kts | 82° |
| 2026-05-07 07:33 | 53.48116 | -2.32604 | 10399 ft | 301 kts | 81° |
| 2026-05-07 07:33 | 53.48505 | -2.29011 | 10596 ft | 325 kts | 80° |
| 2026-05-07 07:33 | 53.48937 | -2.25165 | 10892 ft | 344 kts | 80° |
| 2026-05-07 07:34 | 53.49387 | -2.21173 | 11507 ft | 351 kts | 80° |
| 2026-05-07 07:34 | 53.49822 | -2.17111 | 12007 ft | 354 kts | 81° |
| 2026-05-07 07:34 | 53.50249 | -2.13027 | 12374 ft | 359 kts | 80° |
| 2026-05-07 07:34 | 53.50681 | -2.08886 | 13118 ft | 361 kts | 80° |
| 2026-05-07 07:35 | 53.51118 | -2.04717 | 13916 ft | 364 kts | 79° |
| 2026-05-07 07:35 | 53.51557 | -2.00517 | 14582 ft | 367 kts | 80° |
| 2026-05-07 07:35 | 53.52000 | -1.96276 | 15262 ft | 369 kts | 80° |
| 2026-05-07 07:35 | 53.52384 | -1.91995 | 15940 ft | 372 kts | 86° |
| 2026-05-07 07:36 | 53.52326 | -1.87641 | 16606 ft | 374 kts | 98° |
| 2026-05-07 07:36 | 53.51786 | -1.83364 | 17296 ft | 376 kts | 107° |
| 2026-05-07 07:36 | 53.51027 | -1.79148 | 17981 ft | 378 kts | 108° |
| 2026-05-07 07:36 | 53.50241 | -1.74911 | 18572 ft | 382 kts | 108° |
| 2026-05-07 07:37 | 53.49456 | -1.70629 | 19123 ft | 385 kts | 108° |
| 2026-05-07 07:37 | 53.48683 | -1.66314 | 19679 ft | 388 kts | 107° |
| 2026-05-07 07:37 | 53.47913 | -1.61978 | 20255 ft | 389 kts | 107° |
| 2026-05-07 07:37 | 53.47137 | -1.57600 | 20768 ft | 393 kts | 107° |
| 2026-05-07 07:38 | 53.46348 | -1.53183 | 21267 ft | 397 kts | 107° |
| 2026-05-07 07:38 | 53.45550 | -1.48737 | 21812 ft | 400 kts | 107° |
| 2026-05-07 07:38 | 53.44747 | -1.44269 | 22386 ft | 401 kts | 107° |
| 2026-05-07 07:38 | 53.43937 | -1.39774 | 22929 ft | 403 kts | 107° |
| 2026-05-07 07:39 | 53.43123 | -1.35260 | 23441 ft | 406 kts | 107° |
| 2026-05-07 07:39 | 53.42301 | -1.30715 | 23910 ft | 408 kts | 107° |
| 2026-05-07 07:39 | 53.41486 | -1.26225 | 24313 ft | 410 kts | 107° |
| 2026-05-07 07:39 | 53.40643 | -1.21577 | 24718 ft | 413 kts | 107° |
| 2026-05-07 07:40 | 53.39814 | -1.17019 | 25113 ft | 416 kts | 107° |
| 2026-05-07 07:40 | 53.38966 | -1.12377 | 25525 ft | 418 kts | 107° |
| 2026-05-07 07:40 | 53.38111 | -1.07715 | 25903 ft | 420 kts | 107° |
| 2026-05-07 07:40 | 53.37250 | -1.03026 | 26272 ft | 423 kts | 107° |
| 2026-05-07 07:41 | 53.36383 | -0.98314 | 26645 ft | 425 kts | 107° |
| 2026-05-07 07:41 | 53.35509 | -0.93572 | 27016 ft | 428 kts | 106° |
| 2026-05-07 07:41 | 53.34627 | -0.88804 | 27369 ft | 430 kts | 106° |
| 2026-05-07 07:41 | 53.33740 | -0.84017 | 27718 ft | 432 kts | 106° |
| 2026-05-07 07:42 | 53.32847 | -0.79204 | 28073 ft | 434 kts | 107° |
| 2026-05-07 07:42 | 53.31947 | -0.74370 | 28409 ft | 436 kts | 107° |
| 2026-05-07 07:42 | 53.31040 | -0.69515 | 28734 ft | 439 kts | 107° |
| 2026-05-07 07:42 | 53.30125 | -0.64628 | 29056 ft | 441 kts | 107° |
| 2026-05-07 07:43 | 53.29204 | -0.59733 | 29373 ft | 443 kts | 107° |
| 2026-05-07 07:43 | 53.28278 | -0.54810 | 29687 ft | 445 kts | 107° |
| 2026-05-07 07:43 | 53.27345 | -0.49864 | 29985 ft | 447 kts | 107° |
| 2026-05-07 07:43 | 53.26406 | -0.44901 | 30261 ft | 449 kts | 107° |
| 2026-05-07 07:44 | 53.25461 | -0.39919 | 30514 ft | 450 kts | 107° |
| 2026-05-07 07:44 | 53.24514 | -0.34943 | 30901 ft | 448 kts | 107° |
| 2026-05-07 07:44 | 53.23575 | -0.30024 | 31436 ft | 442 kts | 106° |
| 2026-05-07 07:44 | 53.22642 | -0.25149 | 31848 ft | 440 kts | 106° |
| 2026-05-07 07:45 | 53.21710 | -0.20292 | 32139 ft | 440 kts | 106° |
| 2026-05-07 07:45 | 53.20775 | -0.15427 | 32427 ft | 440 kts | 106° |
| 2026-05-07 07:45 | 53.19839 | -0.10568 | 32785 ft | 438 kts | 106° |
| 2026-05-07 07:45 | 53.18908 | -0.05748 | 33179 ft | 436 kts | 106° |
| 2026-05-07 07:46 | 53.17978 | -0.00946 | 33541 ft | 434 kts | 106° |
| 2026-05-07 07:46 | 53.17047 | 0.03840 | 33843 ft | 434 kts | 106° |
| 2026-05-07 07:46 | 53.16116 | 0.08612 | 34135 ft | 433 kts | 106° |
| 2026-05-07 07:46 | 53.15185 | 0.13381 | 34379 ft | 433 kts | 106° |
| 2026-05-07 07:47 | 53.14251 | 0.18152 | 34539 ft | 434 kts | 107° |
| 2026-05-07 07:47 | 53.13312 | 0.22937 | 34713 ft | 435 kts | 107° |
| 2026-05-07 07:47 | 53.12370 | 0.27730 | 34927 ft | 435 kts | 107° |
| 2026-05-07 07:47 | 53.11425 | 0.32522 | 35132 ft | 436 kts | 107° |
| 2026-05-07 07:48 | 53.10490 | 0.37252 | 35305 ft | 437 kts | 107° |
| 2026-05-07 07:48 | 53.09528 | 0.42113 | 35494 ft | 437 kts | 107° |
| 2026-05-07 07:48 | 53.08573 | 0.46920 | 35687 ft | 437 kts | 107° |
| 2026-05-07 07:48 | 53.07792 | 0.50843 | 35837 ft | 438 kts | 107° |
| 2026-05-07 07:49 | 53.06833 | 0.55649 | 35991 ft | 439 kts | 107° |
| 2026-05-07 07:49 | 53.05868 | 0.60479 | 36146 ft | 440 kts | 107° |
| 2026-05-07 07:49 | 53.04901 | 0.65305 | 36336 ft | 440 kts | 108° |
| 2026-05-07 07:49 | 53.03933 | 0.70122 | 36538 ft | 440 kts | 107° |
| 2026-05-07 07:50 | 53.02960 | 0.74950 | 36687 ft | 441 kts | 108° |
| 2026-05-07 07:50 | 53.01986 | 0.79777 | 36848 ft | 441 kts | 108° |
| 2026-05-07 07:50 | 53.01023 | 0.84535 | 37023 ft | 440 kts | 108° |
| 2026-05-07 07:51 | 52.99067 | 0.94177 | 37080 ft | 442 kts | 108° |
| 2026-05-07 07:51 | 52.97068 | 1.03835 | 37084 ft | 443 kts | 109° |
| 2026-05-07 07:52 | 52.94903 | 1.13424 | 37095 ft | 444 kts | 110° |
| 2026-05-07 07:52 | 52.92699 | 1.23004 | 37094 ft | 445 kts | 110° |
| 2026-05-07 07:53 | 52.90497 | 1.32604 | 37089 ft | 446 kts | 110° |
| 2026-05-07 07:53 | 52.88299 | 1.42206 | 37087 ft | 446 kts | 110° |
| 2026-05-07 07:54 | 52.86096 | 1.51802 | 37091 ft | 446 kts | 110° |
| 2026-05-07 07:54 | 52.83886 | 1.61388 | 37088 ft | 446 kts | 110° |
| 2026-05-07 07:55 | 52.81671 | 1.70952 | 37087 ft | 445 kts | 110° |
| 2026-05-07 07:55 | 52.79447 | 1.80509 | 37088 ft | 445 kts | 110° |
| 2026-05-07 07:56 | 52.77217 | 1.90043 | 37083 ft | 445 kts | 110° |
| 2026-05-07 07:56 | 52.74982 | 1.99560 | 37086 ft | 445 kts | 111° |
| 2026-05-07 07:57 | 52.72739 | 2.09071 | 37079 ft | 445 kts | 111° |
| 2026-05-07 07:57 | 52.70488 | 2.18575 | 37089 ft | 445 kts | 111° |
| 2026-05-07 07:58 | 52.68227 | 2.28078 | 37080 ft | 446 kts | 111° |
| 2026-05-07 07:58 | 52.65970 | 2.37523 | 37085 ft | 446 kts | 111° |
| 2026-05-07 07:59 | 52.64058 | 2.45489 | 37080 ft | 447 kts | 111° |
| 2026-05-07 07:59 | 52.61394 | 2.56545 | 37075 ft | 448 kts | 111° |
| 2026-05-07 08:00 | 52.59463 | 2.64524 | 37080 ft | 448 kts | 111° |
| 2026-05-07 08:00 | 52.57150 | 2.74053 | 37086 ft | 449 kts | 111° |
| 2026-05-07 08:01 | 52.54835 | 2.83523 | 37083 ft | 450 kts | 112° |
| 2026-05-07 08:01 | 52.52002 | 2.92693 | 37087 ft | 450 kts | 119° |
| 2026-05-07 08:02 | 52.48916 | 3.01646 | 37065 ft | 451 kts | 120° |
| 2026-05-07 08:02 | 52.45830 | 3.10611 | 37079 ft | 451 kts | 120° |
| 2026-05-07 08:03 | 52.42773 | 3.19605 | 37072 ft | 452 kts | 120° |
| 2026-05-07 08:03 | 52.39725 | 3.28604 | 37081 ft | 452 kts | 120° |
| 2026-05-07 08:04 | 52.36672 | 3.37599 | 37066 ft | 452 kts | 119° |
| 2026-05-07 08:04 | 52.33612 | 3.46579 | 37076 ft | 452 kts | 120° |
| 2026-05-07 08:05 | 52.30546 | 3.55543 | 37073 ft | 452 kts | 120° |
| 2026-05-07 08:05 | 52.27473 | 3.64492 | 37065 ft | 452 kts | 120° |
| 2026-05-07 08:06 | 52.24392 | 3.73432 | 37081 ft | 452 kts | 120° |
| 2026-05-07 08:06 | 52.21307 | 3.82352 | 37063 ft | 452 kts | 120° |
| 2026-05-07 08:07 | 52.18211 | 3.91272 | 37070 ft | 452 kts | 120° |
| 2026-05-07 08:07 | 52.15110 | 4.00177 | 37061 ft | 452 kts | 120° |
| 2026-05-07 08:08 | 52.12000 | 4.09071 | 37064 ft | 452 kts | 120° |
| 2026-05-07 08:08 | 52.08887 | 4.17947 | 37054 ft | 452 kts | 121° |
| 2026-05-07 08:09 | 52.05761 | 4.26825 | 37054 ft | 452 kts | 121° |
| 2026-05-07 08:09 | 52.02629 | 4.35691 | 37077 ft | 452 kts | 121° |
| 2026-05-07 08:10 | 51.99490 | 4.44546 | 37074 ft | 453 kts | 121° |
| 2026-05-07 08:10 | 51.96344 | 4.53387 | 37077 ft | 453 kts | 121° |
| 2026-05-07 08:11 | 51.93194 | 4.62212 | 37071 ft | 452 kts | 121° |
| 2026-05-07 08:11 | 51.90036 | 4.71026 | 37041 ft | 452 kts | 121° |
| 2026-05-07 08:12 | 51.86873 | 4.79824 | 37044 ft | 452 kts | 121° |
| 2026-05-07 08:12 | 51.83703 | 4.88611 | 37041 ft | 452 kts | 121° |
| 2026-05-07 08:13 | 51.80527 | 4.97381 | 37049 ft | 452 kts | 121° |
| 2026-05-07 08:13 | 51.77347 | 5.06137 | 37048 ft | 452 kts | 121° |
| 2026-05-07 08:14 | 51.74161 | 5.14876 | 37046 ft | 452 kts | 121° |
| 2026-05-07 08:14 | 51.70967 | 5.23608 | 37046 ft | 452 kts | 121° |
| 2026-05-07 08:15 | 51.67767 | 5.32324 | 37038 ft | 452 kts | 121° |
| 2026-05-07 08:15 | 51.64676 | 5.40718 | 37044 ft | 452 kts | 121° |
| 2026-05-07 08:16 | 51.61465 | 5.49406 | 37047 ft | 452 kts | 122° |
| 2026-05-07 08:16 | 51.58270 | 5.58024 | 37050 ft | 452 kts | 122° |
| 2026-05-07 08:17 | 51.55046 | 5.66690 | 37051 ft | 452 kts | 122° |
| 2026-05-07 08:17 | 51.51792 | 5.75406 | 37048 ft | 452 kts | 122° |
| 2026-05-07 08:18 | 51.48552 | 5.84055 | 37042 ft | 452 kts | 122° |
| 2026-05-07 08:18 | 51.45328 | 5.92634 | 37046 ft | 452 kts | 122° |
| 2026-05-07 08:19 | 51.42075 | 6.01259 | 37046 ft | 452 kts | 122° |
| 2026-05-07 08:19 | 51.38816 | 6.09872 | 37042 ft | 452 kts | 122° |
| 2026-05-07 08:20 | 51.35552 | 6.18469 | 37035 ft | 452 kts | 122° |
| 2026-05-07 08:20 | 51.32279 | 6.27060 | 37022 ft | 452 kts | 122° |
| 2026-05-07 08:21 | 51.29002 | 6.35634 | 37022 ft | 452 kts | 122° |
| 2026-05-07 08:21 | 51.25715 | 6.44206 | 37023 ft | 452 kts | 122° |
| 2026-05-07 08:22 | 51.22425 | 6.52755 | 37022 ft | 452 kts | 122° |
| 2026-05-07 08:22 | 51.19125 | 6.61303 | 37023 ft | 453 kts | 122° |
| 2026-05-07 08:23 | 51.15825 | 6.69825 | 37019 ft | 453 kts | 122° |
| 2026-05-07 08:23 | 51.12512 | 6.78350 | 37018 ft | 453 kts | 123° |
| 2026-05-07 08:24 | 51.09188 | 6.86874 | 37020 ft | 454 kts | 123° |
| 2026-05-07 08:24 | 51.05853 | 6.95399 | 37024 ft | 454 kts | 123° |
| 2026-05-07 08:25 | 51.02512 | 7.03911 | 37023 ft | 454 kts | 123° |
| 2026-05-07 08:25 | 50.99167 | 7.12409 | 37028 ft | 454 kts | 123° |
| 2026-05-07 08:26 | 50.94128 | 7.25151 | 37019 ft | 454 kts | 123° |
| 2026-05-07 08:26 | 50.90765 | 7.33623 | 37023 ft | 454 kts | 123° |
| 2026-05-07 08:27 | 50.87395 | 7.42084 | 37017 ft | 454 kts | 123° |
| 2026-05-07 08:27 | 50.84020 | 7.50530 | 37016 ft | 454 kts | 123° |
| 2026-05-07 08:28 | 50.80643 | 7.58954 | 37009 ft | 453 kts | 123° |
| 2026-05-07 08:28 | 50.77260 | 7.67367 | 36998 ft | 453 kts | 123° |
| 2026-05-07 08:29 | 50.73877 | 7.75751 | 36983 ft | 453 kts | 123° |
| 2026-05-07 08:29 | 50.70491 | 7.84117 | 36979 ft | 452 kts | 124° |
| 2026-05-07 08:30 | 50.67100 | 7.92469 | 36968 ft | 452 kts | 124° |
| 2026-05-07 08:30 | 50.63705 | 8.00808 | 36964 ft | 452 kts | 124° |
| 2026-05-07 08:31 | 50.60303 | 8.09123 | 36995 ft | 452 kts | 125° |
| 2026-05-07 08:31 | 50.56501 | 8.16972 | 37003 ft | 450 kts | 130° |
| 2026-05-07 08:32 | 50.52521 | 8.24578 | 36989 ft | 451 kts | 130° |
| 2026-05-07 08:32 | 50.48596 | 8.32171 | 36995 ft | 451 kts | 130° |
| 2026-05-07 08:33 | 50.44642 | 8.39896 | 36990 ft | 451 kts | 130° |
| 2026-05-07 08:33 | 50.40743 | 8.47508 | 36993 ft | 451 kts | 130° |
| 2026-05-07 08:34 | 50.36739 | 8.55143 | 36984 ft | 450 kts | 133° |
| 2026-05-07 08:34 | 50.32520 | 8.62283 | 37000 ft | 450 kts | 135° |
| 2026-05-07 08:35 | 50.28197 | 8.69385 | 36978 ft | 450 kts | 135° |
| 2026-05-07 08:35 | 50.23897 | 8.76488 | 36987 ft | 450 kts | 135° |
| 2026-05-07 08:36 | 50.19610 | 8.83603 | 36990 ft | 450 kts | 135° |
| 2026-05-07 08:36 | 50.15320 | 8.90721 | 36984 ft | 450 kts | 135° |
| 2026-05-07 08:37 | 50.11023 | 8.97834 | 36989 ft | 450 kts | 135° |
| 2026-05-07 08:37 | 50.06724 | 9.04928 | 36990 ft | 450 kts | 135° |
| 2026-05-07 08:38 | 50.02424 | 9.12004 | 36990 ft | 450 kts | 135° |
| 2026-05-07 08:38 | 49.98115 | 9.19073 | 36982 ft | 450 kts | 135° |
| 2026-05-07 08:39 | 49.93805 | 9.26124 | 36978 ft | 450 kts | 135° |
| 2026-05-07 08:39 | 49.89491 | 9.33163 | 36976 ft | 450 kts | 135° |
| 2026-05-07 08:40 | 49.85171 | 9.40191 | 36978 ft | 450 kts | 135° |
| 2026-05-07 08:40 | 49.80848 | 9.47207 | 36973 ft | 450 kts | 135° |
| 2026-05-07 08:41 | 49.76524 | 9.54203 | 36967 ft | 450 kts | 136° |
| 2026-05-07 08:41 | 49.72228 | 9.61136 | 36974 ft | 449 kts | 136° |
| 2026-05-07 08:42 | 49.67904 | 9.68094 | 36974 ft | 449 kts | 136° |
| 2026-05-07 08:42 | 49.63574 | 9.75042 | 36979 ft | 449 kts | 136° |
| 2026-05-07 08:43 | 49.59245 | 9.81970 | 36985 ft | 449 kts | 136° |
| 2026-05-07 08:43 | 49.54900 | 9.88905 | 36983 ft | 451 kts | 136° |
| 2026-05-07 08:44 | 49.50547 | 9.95834 | 36991 ft | 450 kts | 136° |
| 2026-05-07 08:44 | 49.46186 | 10.02758 | 36988 ft | 450 kts | 136° |
| 2026-05-07 08:45 | 49.42569 | 10.08486 | 36992 ft | 449 kts | 136° |
| 2026-05-07 08:45 | 49.38218 | 10.15360 | 36994 ft | 449 kts | 136° |
| 2026-05-07 08:46 | 49.33863 | 10.22221 | 36994 ft | 449 kts | 136° |
| 2026-05-07 08:46 | 49.29503 | 10.29075 | 36988 ft | 449 kts | 137° |
| 2026-05-07 08:47 | 49.25139 | 10.35911 | 36992 ft | 448 kts | 137° |
| 2026-05-07 08:47 | 49.20227 | 10.41615 | 37027 ft | 442 kts | 152° |
| 2026-05-07 08:48 | 49.14918 | 10.46332 | 37004 ft | 442 kts | 152° |
| 2026-05-07 08:48 | 49.09610 | 10.51068 | 37025 ft | 442 kts | 152° |
| 2026-05-07 08:49 | 49.04314 | 10.55854 | 37024 ft | 444 kts | 152° |
| 2026-05-07 08:49 | 48.98995 | 10.60671 | 36996 ft | 445 kts | 152° |
| 2026-05-07 08:50 | 48.93677 | 10.65477 | 37018 ft | 444 kts | 152° |
| 2026-05-07 08:50 | 48.88354 | 10.70273 | 37032 ft | 445 kts | 152° |
| 2026-05-07 08:51 | 48.83049 | 10.75050 | 37006 ft | 447 kts | 150° |
| 2026-05-07 08:51 | 48.78314 | 10.81201 | 37004 ft | 452 kts | 135° |
| 2026-05-07 08:52 | 48.74145 | 10.88322 | 36989 ft | 451 kts | 134° |
| 2026-05-07 08:52 | 48.69964 | 10.95442 | 36985 ft | 448 kts | 135° |
| 2026-05-07 08:53 | 48.65830 | 11.02385 | 36990 ft | 446 kts | 135° |
| 2026-05-07 08:53 | 48.61669 | 11.09317 | 37003 ft | 444 kts | 135° |
| 2026-05-07 08:54 | 48.57508 | 11.16227 | 36990 ft | 445 kts | 135° |
| 2026-05-07 08:54 | 48.53346 | 11.23122 | 36994 ft | 444 kts | 135° |
| 2026-05-07 08:55 | 48.49187 | 11.29997 | 36971 ft | 444 kts | 136° |
| 2026-05-07 08:55 | 48.45027 | 11.36856 | 36992 ft | 443 kts | 136° |
| 2026-05-07 08:56 | 48.40862 | 11.43705 | 36993 ft | 443 kts | 136° |
| 2026-05-07 08:56 | 48.36690 | 11.50548 | 36997 ft | 444 kts | 136° |
| 2026-05-07 08:57 | 48.32503 | 11.57399 | 36999 ft | 445 kts | 136° |
| 2026-05-07 08:57 | 48.28304 | 11.64254 | 36995 ft | 446 kts | 136° |
| 2026-05-07 08:58 | 48.23985 | 11.70907 | 36999 ft | 443 kts | 141° |
| 2026-05-07 08:58 | 48.19433 | 11.77123 | 36999 ft | 443 kts | 142° |
| 2026-05-07 08:59 | 48.15322 | 11.82666 | 36999 ft | 443 kts | 142° |
| 2026-05-07 08:59 | 48.10762 | 11.88863 | 36994 ft | 443 kts | 142° |
| 2026-05-07 09:00 | 48.06214 | 11.95069 | 37004 ft | 443 kts | 142° |
| 2026-05-07 09:00 | 48.01668 | 12.01268 | 36998 ft | 442 kts | 142° |
| 2026-05-07 09:01 | 47.97130 | 12.07441 | 37003 ft | 441 kts | 142° |
| 2026-05-07 09:01 | 47.92602 | 12.13583 | 37008 ft | 440 kts | 142° |
| 2026-05-07 09:02 | 47.88109 | 12.19662 | 37011 ft | 439 kts | 142° |
| 2026-05-07 09:02 | 47.83594 | 12.25755 | 37019 ft | 438 kts | 142° |
| 2026-05-07 09:03 | 47.79082 | 12.31830 | 37020 ft | 437 kts | 143° |
| 2026-05-07 09:03 | 47.74573 | 12.37885 | 37017 ft | 437 kts | 143° |
| 2026-05-07 09:04 | 47.70062 | 12.43930 | 37014 ft | 437 kts | 142° |
| 2026-05-07 09:04 | 47.65545 | 12.49971 | 37020 ft | 437 kts | 143° |
| 2026-05-07 09:05 | 47.61003 | 12.55974 | 37025 ft | 437 kts | 144° |
| 2026-05-07 09:05 | 47.56306 | 12.61681 | 37014 ft | 437 kts | 146° |
| 2026-05-07 09:06 | 47.51568 | 12.67305 | 37000 ft | 436 kts | 146° |
| 2026-05-07 09:06 | 47.46839 | 12.72957 | 37017 ft | 437 kts | 146° |
| 2026-05-07 09:07 | 47.42113 | 12.78630 | 37006 ft | 438 kts | 146° |
| 2026-05-07 09:07 | 47.37389 | 12.84298 | 37018 ft | 438 kts | 146° |
| 2026-05-07 09:08 | 47.32652 | 12.89972 | 37011 ft | 439 kts | 146° |
| 2026-05-07 09:08 | 47.27902 | 12.95645 | 36984 ft | 440 kts | 147° |
| 2026-05-07 09:09 | 47.23156 | 13.01301 | 36998 ft | 439 kts | 146° |
| 2026-05-07 09:09 | 47.18414 | 13.06938 | 36986 ft | 437 kts | 147° |
| 2026-05-07 09:10 | 47.13692 | 13.12539 | 36982 ft | 435 kts | 147° |
| 2026-05-07 09:10 | 47.08980 | 13.18114 | 36982 ft | 435 kts | 147° |
| 2026-05-07 09:11 | 47.04350 | 13.23581 | 36974 ft | 434 kts | 147° |
| 2026-05-07 09:11 | 46.99807 | 13.28929 | 36940 ft | 433 kts | 147° |
| 2026-05-07 09:12 | 46.95154 | 13.34400 | 36979 ft | 425 kts | 147° |
| 2026-05-07 09:12 | 46.90526 | 13.39817 | 36965 ft | 432 kts | 147° |
| 2026-05-07 09:13 | 46.85779 | 13.45349 | 36977 ft | 440 kts | 147° |
| 2026-05-07 09:13 | 46.80988 | 13.50951 | 36966 ft | 440 kts | 147° |
| 2026-05-07 09:14 | 46.76265 | 13.56468 | 36942 ft | 432 kts | 147° |
| 2026-05-07 09:14 | 46.71571 | 13.61921 | 36979 ft | 432 kts | 147° |
| 2026-05-07 09:15 | 46.66861 | 13.67375 | 36988 ft | 433 kts | 147° |
| 2026-05-07 09:15 | 46.62131 | 13.72847 | 36989 ft | 435 kts | 147° |
| 2026-05-07 09:16 | 46.57385 | 13.78323 | 36995 ft | 436 kts | 148° |
| 2026-05-07 09:16 | 46.52619 | 13.83804 | 36939 ft | 437 kts | 148° |
| 2026-05-07 09:17 | 46.47853 | 13.89279 | 36977 ft | 438 kts | 148° |
| 2026-05-07 09:17 | 46.43084 | 13.94740 | 37019 ft | 436 kts | 148° |
| 2026-05-07 09:18 | 46.38321 | 14.00185 | 36971 ft | 435 kts | 148° |
| 2026-05-07 09:18 | 46.33572 | 14.05602 | 36987 ft | 434 kts | 148° |
| 2026-05-07 09:19 | 46.28820 | 14.11008 | 36984 ft | 436 kts | 148° |
| 2026-05-07 09:19 | 46.24045 | 14.16428 | 36967 ft | 437 kts | 148° |
| 2026-05-07 09:20 | 46.19262 | 14.21848 | 36996 ft | 436 kts | 148° |
| 2026-05-07 09:20 | 46.14476 | 14.27257 | 37013 ft | 438 kts | 148° |
| 2026-05-07 09:21 | 46.09665 | 14.32684 | 36979 ft | 439 kts | 148° |
| 2026-05-07 09:21 | 46.04858 | 14.38101 | 36983 ft | 439 kts | 148° |
| 2026-05-07 09:22 | 46.00071 | 14.43566 | 36984 ft | 439 kts | 148° |
| 2026-05-07 09:22 | 45.95308 | 14.49020 | 36985 ft | 437 kts | 148° |
| 2026-05-07 09:23 | 45.90565 | 14.54432 | 37001 ft | 434 kts | 148° |
| 2026-05-07 09:23 | 45.85836 | 14.59809 | 37002 ft | 433 kts | 148° |
| 2026-05-07 09:24 | 45.81147 | 14.65124 | 36997 ft | 432 kts | 148° |
| 2026-05-07 09:24 | 45.76436 | 14.70454 | 36993 ft | 431 kts | 148° |
| 2026-05-07 09:25 | 45.71729 | 14.75769 | 37001 ft | 431 kts | 148° |
| 2026-05-07 09:25 | 45.67019 | 14.81075 | 37014 ft | 431 kts | 148° |
| 2026-05-07 09:26 | 45.62309 | 14.86370 | 37005 ft | 431 kts | 148° |
| 2026-05-07 09:26 | 45.57594 | 14.91659 | 36995 ft | 431 kts | 149° |
| 2026-05-07 09:27 | 45.52877 | 14.96941 | 36996 ft | 432 kts | 149° |
| 2026-05-07 09:28 | 45.45820 | 15.05000 | 37009 ft | 436 kts | 147° |
| 2026-05-07 09:28 | 45.41191 | 15.10598 | 37013 ft | 437 kts | 146° |
| 2026-05-07 09:29 | 45.36545 | 15.16209 | 37025 ft | 439 kts | 146° |
| 2026-05-07 09:29 | 45.31864 | 15.21813 | 37010 ft | 441 kts | 147° |
| 2026-05-07 09:30 | 45.27162 | 15.27415 | 37018 ft | 441 kts | 147° |
| 2026-05-07 09:30 | 45.22462 | 15.32999 | 37023 ft | 440 kts | 147° |
| 2026-05-07 09:31 | 45.17766 | 15.38566 | 37020 ft | 440 kts | 147° |
| 2026-05-07 09:31 | 45.13076 | 15.44114 | 37021 ft | 439 kts | 147° |
| 2026-05-07 09:32 | 45.08394 | 15.49640 | 37018 ft | 437 kts | 147° |
| 2026-05-07 09:32 | 45.04515 | 15.54207 | 37021 ft | 436 kts | 147° |
| 2026-05-07 09:33 | 44.99858 | 15.59681 | 37022 ft | 435 kts | 147° |
| 2026-05-07 09:33 | 44.95204 | 15.65138 | 37039 ft | 435 kts | 147° |
| 2026-05-07 09:34 | 44.90530 | 15.70607 | 37033 ft | 437 kts | 147° |
| 2026-05-07 09:34 | 44.85855 | 15.76067 | 37012 ft | 437 kts | 147° |
| 2026-05-07 09:35 | 44.81162 | 15.81537 | 37028 ft | 437 kts | 146° |
| 2026-05-07 09:35 | 44.76483 | 15.86980 | 37062 ft | 437 kts | 146° |
| 2026-05-07 09:36 | 44.71764 | 15.92452 | 37048 ft | 442 kts | 146° |
| 2026-05-07 09:36 | 44.66953 | 15.97812 | 37052 ft | 436 kts | 154° |
| 2026-05-07 09:37 | 44.61736 | 16.02047 | 37044 ft | 432 kts | 157° |
| 2026-05-07 09:37 | 44.56487 | 16.06115 | 37044 ft | 431 kts | 156° |
| 2026-05-07 09:38 | 44.51251 | 16.10222 | 37052 ft | 431 kts | 156° |
| 2026-05-07 09:38 | 44.46021 | 16.14364 | 37054 ft | 432 kts | 156° |
| 2026-05-07 09:39 | 44.40792 | 16.18512 | 37033 ft | 432 kts | 156° |
| 2026-05-07 09:39 | 44.35552 | 16.22660 | 37046 ft | 433 kts | 156° |
| 2026-05-07 09:40 | 44.30307 | 16.26804 | 37034 ft | 432 kts | 155° |
| 2026-05-07 09:40 | 44.25081 | 16.30923 | 37051 ft | 431 kts | 155° |
| 2026-05-07 09:41 | 44.19868 | 16.35022 | 37047 ft | 430 kts | 155° |
| 2026-05-07 09:41 | 44.14656 | 16.39113 | 37068 ft | 430 kts | 156° |
| 2026-05-07 09:42 | 44.09442 | 16.43198 | 37060 ft | 430 kts | 155° |
| 2026-05-07 09:42 | 44.04223 | 16.47278 | 37081 ft | 431 kts | 155° |
| 2026-05-07 09:43 | 43.99210 | 16.51955 | 37067 ft | 437 kts | 147° |
| 2026-05-07 09:43 | 43.94421 | 16.57106 | 37064 ft | 439 kts | 147° |
| 2026-05-07 09:44 | 43.89565 | 16.62334 | 37081 ft | 439 kts | 147° |
| 2026-05-07 09:44 | 43.84717 | 16.67473 | 37089 ft | 439 kts | 147° |
| 2026-05-07 09:45 | 43.79854 | 16.72580 | 37074 ft | 439 kts | 147° |
| 2026-05-07 09:45 | 43.75004 | 16.77652 | 37086 ft | 441 kts | 147° |
| 2026-05-07 09:46 | 43.70108 | 16.82763 | 37075 ft | 440 kts | 147° |
| 2026-05-07 09:46 | 43.65237 | 16.87841 | 37079 ft | 437 kts | 147° |
| 2026-05-07 09:47 | 43.60399 | 16.92874 | 37093 ft | 434 kts | 147° |
| 2026-05-07 09:47 | 43.55572 | 16.97881 | 37104 ft | 434 kts | 147° |
| 2026-05-07 09:48 | 43.50740 | 17.02880 | 37097 ft | 433 kts | 147° |
| 2026-05-07 09:48 | 43.45936 | 17.07849 | 37097 ft | 431 kts | 147° |
| 2026-05-07 09:49 | 43.41151 | 17.12787 | 37110 ft | 429 kts | 148° |
| 2026-05-07 09:49 | 43.36375 | 17.17703 | 37115 ft | 428 kts | 148° |
| 2026-05-07 09:50 | 43.31589 | 17.22618 | 37101 ft | 431 kts | 148° |
| 2026-05-07 09:50 | 43.26776 | 17.27550 | 37099 ft | 433 kts | 148° |
| 2026-05-07 09:51 | 43.21930 | 17.32507 | 37094 ft | 437 kts | 148° |
| 2026-05-07 09:51 | 43.17035 | 17.37505 | 37111 ft | 441 kts | 148° |
| 2026-05-07 09:52 | 43.12106 | 17.42529 | 37095 ft | 439 kts | 148° |
| 2026-05-07 09:52 | 43.07251 | 17.47472 | 37094 ft | 432 kts | 148° |
| 2026-05-07 09:53 | 43.02427 | 17.52368 | 37090 ft | 431 kts | 148° |
| 2026-05-07 09:53 | 42.97610 | 17.57245 | 37100 ft | 430 kts | 148° |
| 2026-05-07 09:54 | 42.92800 | 17.62106 | 37095 ft | 430 kts | 148° |
| 2026-05-07 09:54 | 42.87991 | 17.66956 | 37089 ft | 431 kts | 148° |
| 2026-05-07 09:55 | 42.83163 | 17.71816 | 37065 ft | 432 kts | 148° |
| 2026-05-07 09:55 | 42.78319 | 17.76683 | 37084 ft | 433 kts | 148° |
| 2026-05-07 09:56 | 42.73463 | 17.81552 | 37095 ft | 434 kts | 148° |
| 2026-05-07 09:56 | 42.68578 | 17.86441 | 37114 ft | 439 kts | 148° |
| 2026-05-07 09:57 | 42.63583 | 17.91424 | 37110 ft | 451 kts | 148° |
| 2026-05-07 09:57 | 42.58504 | 17.96485 | 37083 ft | 458 kts | 148° |
| 2026-05-07 09:58 | 42.53354 | 18.01612 | 37098 ft | 460 kts | 148° |
| 2026-05-07 09:58 | 42.48190 | 18.06741 | 37108 ft | 461 kts | 148° |
| 2026-05-07 09:59 | 42.43015 | 18.11868 | 37111 ft | 461 kts | 148° |
| 2026-05-07 09:59 | 42.37840 | 18.16984 | 37097 ft | 460 kts | 148° |
| 2026-05-07 10:00 | 42.32675 | 18.22079 | 37100 ft | 459 kts | 148° |
| 2026-05-07 10:00 | 42.27564 | 18.27110 | 37115 ft | 458 kts | 148° |
| 2026-05-07 10:01 | 42.22562 | 18.32024 | 37106 ft | 457 kts | 148° |
| 2026-05-07 10:01 | 42.17430 | 18.37056 | 37099 ft | 456 kts | 148° |
| 2026-05-07 10:02 | 42.12300 | 18.42076 | 37083 ft | 455 kts | 148° |
| 2026-05-07 10:02 | 42.07183 | 18.47073 | 37099 ft | 454 kts | 148° |
| 2026-05-07 10:03 | 42.02068 | 18.52058 | 37106 ft | 454 kts | 148° |
| 2026-05-07 10:03 | 41.97013 | 18.57169 | 37103 ft | 455 kts | 146° |
| 2026-05-07 10:04 | 41.92027 | 18.62406 | 37110 ft | 455 kts | 146° |
| 2026-05-07 10:04 | 41.87031 | 18.67632 | 37087 ft | 456 kts | 146° |
| 2026-05-07 10:05 | 41.82046 | 18.72805 | 37112 ft | 457 kts | 147° |
| 2026-05-07 10:05 | 41.77004 | 18.78014 | 37100 ft | 459 kts | 146° |
| 2026-05-07 10:06 | 41.71946 | 18.83229 | 37109 ft | 459 kts | 146° |
| 2026-05-07 10:06 | 41.66872 | 18.88452 | 37109 ft | 460 kts | 146° |
| 2026-05-07 10:07 | 41.61793 | 18.93670 | 37097 ft | 461 kts | 147° |
| 2026-05-07 10:07 | 41.56703 | 18.98888 | 37104 ft | 461 kts | 147° |
| 2026-05-07 10:08 | 41.51608 | 19.04102 | 37111 ft | 462 kts | 147° |
| 2026-05-07 10:08 | 41.46462 | 19.09222 | 37103 ft | 459 kts | 152° |
| 2026-05-07 10:09 | 41.40716 | 19.12671 | 37111 ft | 451 kts | 164° |
| 2026-05-07 10:09 | 41.34802 | 19.15462 | 37114 ft | 452 kts | 165° |
| 2026-05-07 10:10 | 41.28831 | 19.18309 | 37113 ft | 460 kts | 164° |
| 2026-05-07 10:10 | 41.22783 | 19.21237 | 37113 ft | 465 kts | 164° |
| 2026-05-07 10:11 | 41.16694 | 19.24199 | 36846 ft | 469 kts | 164° |
| 2026-05-07 10:11 | 41.13651 | 19.25679 | 36346 ft | 462 kts | 163° |
| 2026-05-07 10:11 | 41.10658 | 19.27136 | 35782 ft | 455 kts | 163° |
| 2026-05-07 10:11 | 41.07743 | 19.28551 | 35172 ft | 450 kts | 163° |
| 2026-05-07 10:12 | 41.04818 | 19.29968 | 34568 ft | 445 kts | 162° |
| 2026-05-07 10:12 | 41.01928 | 19.31365 | 33930 ft | 440 kts | 162° |
| 2026-05-07 10:12 | 40.99060 | 19.32750 | 33252 ft | 437 kts | 162° |
| 2026-05-07 10:12 | 40.96209 | 19.34125 | 32612 ft | 436 kts | 163° |
| 2026-05-07 10:13 | 40.93330 | 19.35510 | 31933 ft | 445 kts | 163° |
| 2026-05-07 10:13 | 40.90409 | 19.36913 | 31242 ft | 448 kts | 163° |
| 2026-05-07 10:13 | 40.87461 | 19.38331 | 30542 ft | 453 kts | 163° |
| 2026-05-07 10:13 | 40.84498 | 19.39755 | 29763 ft | 454 kts | 163° |
| 2026-05-07 10:14 | 40.81540 | 19.41178 | 28930 ft | 450 kts | 163° |
| 2026-05-07 10:14 | 40.78614 | 19.42584 | 28237 ft | 445 kts | 163° |
| 2026-05-07 10:14 | 40.75726 | 19.43971 | 27677 ft | 439 kts | 163° |
| 2026-05-07 10:14 | 40.72872 | 19.45340 | 27128 ft | 434 kts | 163° |
| 2026-05-07 10:15 | 40.70047 | 19.46691 | 26562 ft | 429 kts | 163° |
| 2026-05-07 10:15 | 40.67258 | 19.48024 | 26028 ft | 424 kts | 163° |
| 2026-05-07 10:15 | 40.64503 | 19.49340 | 25484 ft | 419 kts | 163° |
| 2026-05-07 10:15 | 40.61773 | 19.50642 | 24952 ft | 415 kts | 163° |
| 2026-05-07 10:16 | 40.59075 | 19.51929 | 24427 ft | 411 kts | 163° |
| 2026-05-07 10:16 | 40.56398 | 19.53204 | 23912 ft | 407 kts | 163° |
| 2026-05-07 10:16 | 40.53748 | 19.54464 | 23402 ft | 403 kts | 163° |
| 2026-05-07 10:16 | 40.51118 | 19.55712 | 22815 ft | 400 kts | 163° |
| 2026-05-07 10:17 | 40.48504 | 19.56952 | 22263 ft | 398 kts | 164° |
| 2026-05-07 10:17 | 40.45909 | 19.58182 | 21718 ft | 395 kts | 164° |
| 2026-05-07 10:17 | 40.43327 | 19.59404 | 21194 ft | 394 kts | 164° |
| 2026-05-07 10:17 | 40.40743 | 19.60625 | 20659 ft | 396 kts | 164° |
| 2026-05-07 10:18 | 40.38148 | 19.61852 | 20147 ft | 397 kts | 164° |
| 2026-05-07 10:18 | 40.35550 | 19.63079 | 19612 ft | 396 kts | 164° |
| 2026-05-07 10:18 | 40.32968 | 19.64298 | 19078 ft | 394 kts | 164° |
| 2026-05-07 10:18 | 40.30393 | 19.65513 | 18538 ft | 393 kts | 165° |
| 2026-05-07 10:19 | 40.27820 | 19.66726 | 17921 ft | 392 kts | 164° |
| 2026-05-07 10:19 | 40.25260 | 19.67932 | 17387 ft | 390 kts | 164° |
| 2026-05-07 10:19 | 40.23576 | 19.68725 | 17042 ft | 388 kts | 164° |
| 2026-05-07 10:19 | 40.21047 | 19.69916 | 16511 ft | 384 kts | 164° |
| 2026-05-07 10:20 | 40.18539 | 19.71097 | 16011 ft | 381 kts | 164° |
| 2026-05-07 10:20 | 40.15225 | 19.72653 | 15322 ft | 377 kts | 164° |
| 2026-05-07 10:20 | 40.13595 | 19.73418 | 14977 ft | 374 kts | 165° |
| 2026-05-07 10:20 | 40.10368 | 19.74931 | 14332 ft | 370 kts | 165° |
| 2026-05-07 10:21 | 40.07951 | 19.76062 | 13806 ft | 369 kts | 165° |
| 2026-05-07 10:21 | 40.06322 | 19.76824 | 13423 ft | 367 kts | 165° |
| 2026-05-07 10:21 | 40.03930 | 19.77943 | 12893 ft | 363 kts | 165° |
| 2026-05-07 10:21 | 40.01564 | 19.79050 | 12388 ft | 359 kts | 164° |
| 2026-05-07 10:22 | 39.99221 | 19.80144 | 11875 ft | 355 kts | 164° |
| 2026-05-07 10:22 | 39.96909 | 19.81224 | 11531 ft | 348 kts | 164° |
| 2026-05-07 10:22 | 39.94677 | 19.82268 | 11395 ft | 335 kts | 164° |
| 2026-05-07 10:22 | 39.92523 | 19.83274 | 11238 ft | 323 kts | 165° |
| 2026-05-07 10:23 | 39.90443 | 19.84244 | 11103 ft | 312 kts | 165° |
| 2026-05-07 10:23 | 39.88410 | 19.84980 | 10813 ft | 304 kts | 173° |
| 2026-05-07 10:23 | 39.86349 | 19.85441 | 10527 ft | 298 kts | 175° |
| 2026-05-07 10:23 | 39.84309 | 19.85841 | 10234 ft | 294 kts | 175° |
| 2026-05-07 10:24 | 39.82290 | 19.86239 | 9966 ft | 293 kts | 175° |
| 2026-05-07 10:24 | 39.80267 | 19.86644 | 9635 ft | 294 kts | 174° |
| 2026-05-07 10:24 | 39.78263 | 19.87073 | 9267 ft | 289 kts | 174° |
| 2026-05-07 10:24 | 39.76287 | 19.87501 | 8982 ft | 286 kts | 174° |
| 2026-05-07 10:25 | 39.74338 | 19.87928 | 8682 ft | 282 kts | 174° |
| 2026-05-07 10:25 | 39.72417 | 19.88348 | 8393 ft | 278 kts | 173° |
| 2026-05-07 10:25 | 39.70528 | 19.88763 | 8121 ft | 274 kts | 173° |
| 2026-05-07 10:25 | 39.68658 | 19.89174 | 7856 ft | 271 kts | 173° |
| 2026-05-07 10:26 | 39.66811 | 19.89581 | 7584 ft | 269 kts | 173° |
| 2026-05-07 10:26 | 39.64976 | 19.89986 | 7313 ft | 267 kts | 173° |
| 2026-05-07 10:26 | 39.63155 | 19.90387 | 7040 ft | 265 kts | 173° |
| 2026-05-07 10:26 | 39.61345 | 19.90789 | 6775 ft | 263 kts | 171° |
| 2026-05-07 10:27 | 39.59642 | 19.91634 | 6501 ft | 265 kts | 150° |
| 2026-05-07 10:27 | 39.58100 | 19.92931 | 6239 ft | 261 kts | 149° |
| 2026-05-07 10:27 | 39.56616 | 19.94176 | 5966 ft | 247 kts | 149° |
| 2026-05-07 10:27 | 39.55205 | 19.95348 | 5686 ft | 235 kts | 149° |
| 2026-05-07 10:28 | 39.53859 | 19.96455 | 5375 ft | 226 kts | 149° |
| 2026-05-07 10:28 | 39.52562 | 19.97516 | 5126 ft | 215 kts | 149° |
| 2026-05-07 10:28 | 39.51335 | 19.98516 | 4900 ft | 204 kts | 149° |
| 2026-05-07 10:28 | 39.50159 | 19.99472 | 4681 ft | 194 kts | 148° |
| 2026-05-07 10:29 | 39.49033 | 20.00387 | 4485 ft | 190 kts | 148° |
| 2026-05-07 10:29 | 39.47914 | 20.01291 | 4308 ft | 190 kts | 150° |
| 2026-05-07 10:29 | 39.46671 | 20.01793 | 4111 ft | 188 kts | 179° |
| 2026-05-07 10:30 | 39.44483 | 20.00310 | 3743 ft | 183 kts | 236° |
| 2026-05-07 10:30 | 39.44077 | 19.98785 | 3545 ft | 180 kts | 265° |
| 2026-05-07 10:30 | 39.44283 | 19.97215 | 3343 ft | 178 kts | 296° |
| 2026-05-07 10:30 | 39.45109 | 19.96065 | 3155 ft | 178 kts | 337° |
| 2026-05-07 10:31 | 39.46293 | 19.95577 | 2972 ft | 183 kts | 345° |
| 2026-05-07 10:31 | 39.47515 | 19.95084 | 2707 ft | 183 kts | 345° |
| 2026-05-07 10:31 | 39.48743 | 19.94639 | 2419 ft | 183 kts | 347° |
| 2026-05-07 10:31 | 39.49972 | 19.94227 | 2144 ft | 182 kts | 348° |
| 2026-05-07 10:32 | 39.51194 | 19.93831 | 1869 ft | 181 kts | 347° |
| 2026-05-07 10:32 | 39.52398 | 19.93438 | 1608 ft | 175 kts | 348° |
| 2026-05-07 10:32 | 39.53549 | 19.93101 | 1362 ft | 162 kts | 349° |
| 2026-05-07 10:32 | 39.54626 | 19.92792 | 1099 ft | 157 kts | 348° |
| 2026-05-07 10:33 | 39.55692 | 19.92484 | 897 ft | 158 kts | 349° |
| 2026-05-07 10:33 | 39.56789 | 19.92174 | 669 ft | 166 kts | 348° |
| 2026-05-07 10:33 | 39.57927 | 19.91836 | 384 ft | 169 kts | 348° |
| 2026-05-07 10:33 | 39.59074 | 19.91503 | 84 ft | 166 kts | 348° |
| 2026-05-07 10:34 | 39.60138 | 19.91228 | 10 ft | 137 kts | 349° |
| 2026-05-07 10:34 | 39.60849 | 19.91045 | 8 ft | 57 kts | 349° |
| 2026-05-07 10:34 | 39.61037 | 19.91037 | 9 ft | 14 kts | 46° |
| 2026-05-07 10:34 | 39.61065 | 19.91099 | 10 ft | 6 kts | 74° |
| 2026-05-07 10:35 | 39.61047 | 19.91139 | 9 ft | 3 kts | 176° |
| 2026-05-07 10:35 | 39.61018 | 19.91140 | 8 ft | 6 kts | 177° |
| 2026-05-07 10:35 | 39.60960 | 19.91149 | 9 ft | 11 kts | 170° |
| 2026-05-07 10:35 | 39.60880 | 19.91169 | 8 ft | 12 kts | 169° |
| 2026-05-07 10:36 | 39.60801 | 19.91190 | 9 ft | 11 kts | 169° |
| 2026-05-07 10:36 | 39.60724 | 19.91209 | 8 ft | 11 kts | 169° |
| 2026-05-07 10:36 | 39.60658 | 19.91226 | 8 ft | 5 kts | 155° |
| 2026-05-07 10:36 | 39.60651 | 19.91270 | 8 ft | 5 kts | 78° |
| 2026-05-07 10:37 | 39.60661 | 19.91316 | 8 ft | 5 kts | 75° |
| 2026-05-07 10:37 | 39.60668 | 19.91351 | 9 ft | 1 kts | 76° |
| 2026-05-07 10:37 | 39.60668 | 19.91354 | 10 ft | 0 kts | 79° |